Time;durP1;ratioP1;P1;durP2;ratioP2;P2;SDS_P1;SDS_P2;PMS_P1;PMS_P2;Temp;Humidity;BMP_temperature;BMP_pressure;BME280_temperature;BME280_humidity;BME280_pressure;Samples;Min_cycle;Max_cycle;Signal;HPM_P1;HPM_P2
2022/09/15 00:01:18;;;;;;;4.60;3.10;;;14.40;99.90;;;;;;4935646;28;20479;-78
2022/09/15 00:03:46;;;;;;;5.93;2.73;;;14.40;99.90;;;;;;4935750;29;20514;-77
2022/09/15 00:06:15;;;;;;;4.70;3.37;;;14.30;99.90;;;;;;4937306;29;20439;-78
2022/09/15 00:08:43;;;;;;;6.20;2.50;;;14.30;99.90;;;;;;4935120;29;20490;-78
2022/09/15 00:11:17;;;;;;;9.43;2.93;;;14.30;99.90;;;;;;4935522;29;20477;-78
2022/09/15 00:13:46;;;;;;;8.73;3.37;;;14.30;99.90;;;;;;4936869;29;20431;-78
2022/09/15 00:16:15;;;;;;;4.47;3.20;;;14.30;99.90;;;;;;4936904;29;20462;-78
2022/09/15 00:18:44;;;;;;;3.97;3.37;;;14.30;99.90;;;;;;4935451;29;20430;-78
2022/09/15 00:21:15;;;;;;;5.10;2.73;;;14.30;99.90;;;;;;4935321;28;20475;-78
2022/09/15 00:23:43;;;;;;;5.63;2.93;;;14.30;99.90;;;;;;4935390;29;20463;-77
2022/09/15 00:26:16;;;;;;;5.43;3.03;;;14.20;99.90;;;;;;4935522;29;20444;-78
2022/09/15 00:28:44;;;;;;;4.40;3.00;;;14.20;99.90;;;;;;4935292;29;20427;-77
2022/09/15 00:31:15;;;;;;;6.13;3.50;;;14.20;99.90;;;;;;4935380;29;20475;-78
2022/09/15 00:33:46;;;;;;;6.57;3.17;;;14.20;99.90;;;;;;4935474;29;20444;-78
2022/09/15 00:36:15;;;;;;;4.70;3.23;;;14.20;99.90;;;;;;4935303;29;20459;-78
2022/09/15 00:38:44;;;;;;;5.97;3.20;;;14.20;99.90;;;;;;4935515;29;20878;-78
2022/09/15 00:41:15;;;;;;;6.03;3.27;;;14.20;99.90;;;;;;4935105;29;20479;-78
2022/09/15 00:43:50;;;;;;;6.27;3.37;;;14.10;99.90;;;;;;4936531;29;20423;-78
2022/09/15 00:46:20;;;;;;;4.93;3.30;;;14.10;99.90;;;;;;4936918;29;20922;-78
2022/09/15 00:48:55;;;;;;;4.80;2.90;;;14.10;99.90;;;;;;4936713;29;20822;-78
2022/09/15 00:51:29;;;;;;;5.53;3.20;;;14.10;99.90;;;;;;4936850;29;20457;-78
2022/09/15 00:54:00;;;;;;;5.57;3.50;;;14.10;99.90;;;;;;4935314;29;20451;-78
2022/09/15 00:56:31;;;;;;;6.77;3.73;;;14.10;99.90;;;;;;4937000;28;20483;-78
2022/09/15 00:59:03;;;;;;;3.90;2.90;;;14.10;99.90;;;;;;4935462;28;20808;-78
2022/09/15 01:01:32;;;;;;;5.73;3.20;;;14.10;99.90;;;;;;4935425;29;20479;-78
2022/09/15 01:04:00;;;;;;;4.07;3.10;;;14.10;99.90;;;;;;4936889;29;20440;-78
2022/09/15 01:06:32;;;;;;;6.53;3.40;;;14.00;99.90;;;;;;4935497;29;20860;-78
2022/09/15 01:09:07;;;;;;;7.47;4.07;;;14.00;99.90;;;;;;4938169;28;20447;-79
2022/09/15 01:11:37;;;;;;;5.53;3.70;;;14.00;99.90;;;;;;4937464;29;20475;-78
2022/09/15 01:14:05;;;;;;;7.07;3.97;;;14.00;99.90;;;;;;4936009;28;20498;-78
2022/09/15 01:16:45;;;;;;;5.43;3.70;;;14.00;99.90;;;;;;4935720;29;20449;-78
2022/09/15 01:19:50;;;;;;;6.90;3.60;;;14.00;99.90;;;;;;4935860;28;21018;-79
2022/09/15 01:22:33;;;;;;;5.90;3.70;;;14.10;99.90;;;;;;4940566;29;20471;-78
2022/09/15 01:25:08;;;;;;;7.00;3.67;;;14.00;99.90;;;;;;4939325;29;20517;-78
2022/09/15 01:28:08;;;;;;;4.80;4.07;;;14.00;99.90;;;;;;4940304;29;20439;-78
2022/09/15 01:30:39;;;;;;;5.00;4.00;;;14.00;99.90;;;;;;4940674;29;20482;-79
2022/09/15 01:33:16;;;;;;;7.63;4.20;;;14.10;99.90;;;;;;4939099;29;20775;-78
2022/09/15 01:35:56;;;;;;;7.37;4.30;;;14.00;99.90;;;;;;4938884;29;20454;-78
2022/09/15 01:38:32;;;;;;;8.73;4.67;;;14.10;99.90;;;;;;4938700;29;20802;-78
2022/09/15 01:41:08;;;;;;;6.07;4.30;;;14.10;99.90;;;;;;4938698;29;20528;-78
2022/09/15 01:43:42;;;;;;;5.17;3.80;;;14.10;99.90;;;;;;4938509;29;20478;-78
2022/09/15 01:46:14;;;;;;;5.77;4.47;;;14.10;99.90;;;;;;4940112;29;20423;-78
2022/09/15 01:48:43;;;;;;;5.43;4.43;;;14.10;99.90;;;;;;4939179;29;20502;-78
2022/09/15 01:51:11;;;;;;;5.17;4.20;;;14.10;99.90;;;;;;4937034;29;21072;-78
2022/09/15 01:53:40;;;;;;;6.30;4.70;;;14.10;99.90;;;;;;4937148;28;20451;-78
2022/09/15 01:56:10;;;;;;;8.87;4.50;;;14.10;99.90;;;;;;4937309;29;20443;-78
2022/09/15 01:58:40;;;;;;;7.07;5.10;;;14.10;99.90;;;;;;4937148;29;20455;-78
2022/09/15 02:01:14;;;;;;;6.60;4.33;;;14.10;99.90;;;;;;4937094;28;21018;-78
2022/09/15 02:03:48;;;;;;;6.50;4.60;;;14.20;99.90;;;;;;4938463;29;20459;-78
2022/09/15 02:06:22;;;;;;;8.40;5.23;;;14.20;99.90;;;;;;4938249;29;20486;-78
2022/09/15 02:08:57;;;;;;;7.20;4.20;;;14.20;99.90;;;;;;4938435;29;20434;-78
2022/09/15 02:11:26;;;;;;;6.83;5.30;;;14.20;99.90;;;;;;4938308;28;21015;-78
2022/09/15 02:14:08;;;;;;;8.30;5.50;;;14.20;99.90;;;;;;4936814;29;20455;-78
2022/09/15 02:16:40;;;;;;;5.90;5.23;;;14.20;99.90;;;;;;4937018;29;20454;-78
2022/09/15 02:19:16;;;;;;;9.67;5.27;;;14.20;99.90;;;;;;4938111;29;20939;-78
2022/09/15 02:21:54;;;;;;;6.70;4.40;;;14.30;99.90;;;;;;4938463;29;20466;-78
2022/09/15 02:24:28;;;;;;;8.33;4.83;;;14.30;99.90;;;;;;4938396;29;20490;-78
2022/09/15 02:26:57;;;;;;;5.27;4.77;;;14.30;99.90;;;;;;4937113;29;20448;-78
2022/09/15 02:29:28;;;;;;;8.00;5.03;;;14.30;99.90;;;;;;4938401;29;20439;-78
2022/09/15 02:32:01;;;;;;;6.33;4.77;;;14.40;99.90;;;;;;4938335;29;20530;-78
2022/09/15 02:34:37;;;;;;;6.70;4.13;;;14.40;99.90;;;;;;4938807;29;20786;-78
2022/09/15 02:37:06;;;;;;;6.57;4.27;;;14.40;99.90;;;;;;4936972;29;20861;-78
2022/09/15 02:39:39;;;;;;;4.60;4.07;;;14.40;99.90;;;;;;4936616;29;20831;-78
2022/09/15 02:42:07;;;;;;;7.00;3.17;;;14.40;99.90;;;;;;4938407;29;20827;-78
2022/09/15 02:44:36;;;;;;;7.80;3.90;;;14.40;99.90;;;;;;4936757;29;20871;-78
2022/09/15 02:47:06;;;;;;;9.77;3.50;;;14.40;99.90;;;;;;4937963;29;20459;-78
2022/09/15 02:49:34;;;;;;;5.00;3.63;;;14.40;99.90;;;;;;4898945;28;1136736;-78
2022/09/15 02:52:03;;;;;;;6.83;3.77;;;14.50;99.90;;;;;;4938923;29;20463;-78
2022/09/15 02:54:31;;;;;;;7.30;3.67;;;14.50;99.90;;;;;;4938746;29;20442;-78
2022/09/15 02:56:59;;;;;;;5.77;3.87;;;14.50;99.90;;;;;;4937755;29;20525;-78
2022/09/15 03:00:11;;;;;;;8.00;3.50;;;14.50;99.90;;;;;;4939099;28;20484;-78
2022/09/15 03:02:20;;;;;;;8.43;3.80;;;14.50;99.90;;;;;;4938467;28;21054;-78
2022/09/15 03:04:49;;;;;;;5.10;3.80;;;14.50;99.90;;;;;;4937691;29;20936;-78
2022/09/15 03:07:18;;;;;;;4.87;3.23;;;14.50;99.90;;;;;;4937745;29;20452;-78
2022/09/15 03:09:46;;;;;;;6.57;4.40;;;14.50;99.90;;;;;;4939328;29;20494;-78
2022/09/15 03:12:14;;;;;;;6.10;3.90;;;14.50;99.90;;;;;;4937604;29;21002;-78
2022/09/15 03:14:43;;;;;;;5.80;4.07;;;14.50;99.90;;;;;;4937761;29;20836;-78
2022/09/15 03:17:11;;;;;;;6.93;4.23;;;14.50;99.90;;;;;;4939379;29;20481;-78
2022/09/15 03:19:40;;;;;;;5.70;4.20;;;14.50;99.90;;;;;;4938999;28;20503;-78
2022/09/15 03:22:09;;;;;;;7.47;5.00;;;14.50;99.90;;;;;;4937400;29;21014;-78
2022/09/15 03:24:37;;;;;;;6.20;4.70;;;14.50;99.90;;;;;;4938921;29;20447;-78
2022/09/15 03:27:06;;;;;;;8.40;4.83;;;14.50;99.90;;;;;;4937397;29;21039;-78
2022/09/15 03:29:34;;;;;;;8.50;5.07;;;14.50;99.90;;;;;;4936794;29;20945;-78
2022/09/15 03:32:02;;;;;;;8.00;5.50;;;14.50;99.90;;;;;;4936496;29;20821;-78
2022/09/15 03:34:31;;;;;;;7.37;5.70;;;14.50;99.90;;;;;;4936656;29;20425;-78
2022/09/15 03:37:00;;;;;;;6.93;5.13;;;14.40;99.90;;;;;;4938096;29;20947;-78
2022/09/15 03:39:28;;;;;;;6.63;5.90;;;14.40;99.90;;;;;;4936813;29;20454;-78
2022/09/15 03:41:56;;;;;;;5.80;5.10;;;14.40;99.90;;;;;;4935922;29;20471;-78
2022/09/15 03:44:25;;;;;;;7.50;5.67;;;14.40;99.90;;;;;;4936618;29;20489;-78
2022/09/15 03:46:53;;;;;;;6.60;5.60;;;14.40;99.90;;;;;;4937663;29;21013;-78
2022/09/15 03:49:21;;;;;;;7.77;6.10;;;14.40;99.90;;;;;;4938165;29;20455;-78
2022/09/15 03:51:49;;;;;;;9.20;5.53;;;14.40;99.90;;;;;;4936443;29;20468;-78
2022/09/15 03:54:19;;;;;;;7.10;5.70;;;14.40;99.90;;;;;;4936262;29;20455;-78
2022/09/15 03:56:47;;;;;;;6.17;5.57;;;14.40;99.90;;;;;;4936422;28;20462;-78
2022/09/15 03:59:17;;;;;;;7.77;5.50;;;14.40;99.90;;;;;;4937947;29;20852;-78
2022/09/15 04:01:49;;;;;;;8.70;6.43;;;14.40;99.90;;;;;;4936316;29;20506;-78
2022/09/15 04:04:17;;;;;;;6.60;5.23;;;14.40;99.90;;;;;;4937642;29;20482;-78
2022/09/15 04:06:46;;;;;;;6.80;5.50;;;14.40;99.90;;;;;;4937851;29;20443;-78
2022/09/15 04:09:14;;;;;;;7.37;5.73;;;14.40;99.90;;;;;;4936183;29;20510;-78
2022/09/15 04:11:43;;;;;;;6.27;5.53;;;14.40;99.90;;;;;;4936337;29;21007;-78
2022/09/15 04:14:11;;;;;;;7.17;5.77;;;14.40;99.90;;;;;;4936238;28;20955;-78
2022/09/15 04:16:39;;;;;;;9.60;6.40;;;14.40;99.90;;;;;;4936180;29;20451;-78
2022/09/15 04:19:08;;;;;;;7.27;5.20;;;14.40;99.90;;;;;;4936074;29;20455;-78
2022/09/15 04:21:36;;;;;;;8.40;5.33;;;14.40;99.90;;;;;;4937481;29;20949;-78
2022/09/15 04:24:04;;;;;;;7.03;5.03;;;14.40;99.90;;;;;;4936068;29;20475;-78
2022/09/15 04:26:35;;;;;;;5.20;4.70;;;14.40;99.90;;;;;;4936216;29;20455;-78
2022/09/15 04:29:10;;;;;;;6.80;5.70;;;14.40;99.90;;;;;;4935985;29;20460;-78
2022/09/15 04:31:39;;;;;;;8.83;5.10;;;14.40;99.90;;;;;;4935825;29;20513;-78
2022/09/15 04:34:07;;;;;;;7.97;4.57;;;14.40;99.90;;;;;;4937882;29;20450;-78
2022/09/15 04:36:35;;;;;;;5.43;4.57;;;14.40;99.90;;;;;;4936155;29;20454;-78
2022/09/15 04:39:04;;;;;;;12.27;5.10;;;14.40;99.90;;;;;;4936113;29;20429;-78
2022/09/15 04:41:33;;;;;;;6.40;4.60;;;14.40;99.90;;;;;;4936048;29;20471;-78
2022/09/15 04:44:01;;;;;;;7.77;4.77;;;14.40;99.90;;;;;;4935570;29;20475;-78
2022/09/15 04:46:31;;;;;;;5.87;4.40;;;14.40;99.90;;;;;;4935916;29;20459;-78
2022/09/15 04:48:59;;;;;;;5.70;3.90;;;14.40;99.90;;;;;;4935641;29;20914;-78
2022/09/15 04:51:27;;;;;;;7.97;4.70;;;14.40;99.90;;;;;;4936978;29;20456;-78
2022/09/15 04:53:55;;;;;;;6.40;4.00;;;14.40;99.90;;;;;;4935751;29;20475;-78
2022/09/15 04:56:25;;;;;;;6.70;4.13;;;14.40;99.90;;;;;;4937343;29;20788;-78
2022/09/15 04:58:55;;;;;;;6.97;3.57;;;14.40;99.90;;;;;;4935803;29;20550;-78
2022/09/15 05:01:33;;;;;;;8.37;4.73;;;14.40;99.90;;;;;;4935582;29;20471;-78
2022/09/15 05:04:03;;;;;;;12.07;5.80;;;14.40;99.90;;;;;;4935886;29;20470;-78
2022/09/15 05:06:33;;;;;;;8.13;3.70;;;14.40;99.90;;;;;;4936860;29;20452;-78
2022/09/15 05:09:03;;;;;;;4.60;4.13;;;14.40;99.90;;;;;;4935641;29;20969;-78
2022/09/15 05:11:37;;;;;;;5.67;3.93;;;14.40;99.90;;;;;;4935502;29;20510;-78
2022/09/15 05:14:05;;;;;;;6.10;3.70;;;14.40;99.90;;;;;;4936920;29;20444;-78
2022/09/15 05:16:35;;;;;;;7.50;4.27;;;14.40;99.90;;;;;;4935387;29;20451;-78
2022/09/15 05:19:04;;;;;;;6.20;3.90;;;14.40;99.90;;;;;;4935941;29;20451;-78
2022/09/15 05:21:32;;;;;;;6.97;4.30;;;14.40;99.90;;;;;;4936072;28;20998;-78
2022/09/15 05:24:01;;;;;;;5.60;3.40;;;14.40;99.90;;;;;;4937126;29;20471;-78
2022/09/15 05:26:29;;;;;;;6.80;3.80;;;14.40;99.90;;;;;;4936870;29;20498;-78
2022/09/15 05:28:58;;;;;;;5.60;3.27;;;14.40;99.90;;;;;;4936118;29;20460;-78
2022/09/15 05:31:29;;;;;;;7.27;4.23;;;14.40;99.90;;;;;;4937041;29;20449;-78
2022/09/15 05:34:01;;;;;;;6.03;3.17;;;14.40;99.90;;;;;;4935353;29;20935;-78
2022/09/15 05:36:29;;;;;;;6.30;3.80;;;14.40;99.90;;;;;;4936689;29;20491;-78
2022/09/15 05:38:58;;;;;;;5.43;3.27;;;14.40;99.90;;;;;;4935446;29;20451;-78
2022/09/15 05:41:28;;;;;;;10.63;3.60;;;14.40;99.90;;;;;;4936593;29;20826;-78
2022/09/15 05:43:57;;;;;;;5.00;3.60;;;14.40;99.90;;;;;;4935113;28;20478;-78
2022/09/15 05:46:26;;;;;;;6.30;3.90;;;14.40;99.90;;;;;;4936671;29;20520;-78
2022/09/15 05:48:57;;;;;;;5.30;3.70;;;14.50;99.90;;;;;;4936944;29;20553;-78
2022/09/15 05:51:26;;;;;;;6.80;3.53;;;14.50;99.90;;;;;;4935198;29;20479;-78
2022/09/15 05:53:54;;;;;;;7.87;3.97;;;14.50;99.90;;;;;;4935916;29;20499;-78
2022/09/15 05:56:23;;;;;;;5.53;3.50;;;14.50;99.90;;;;;;4936261;29;20503;-78
2022/09/15 05:58:51;;;;;;;6.17;3.00;;;14.50;99.90;;;;;;4935113;29;20461;-78
2022/09/15 06:01:21;;;;;;;7.67;3.37;;;14.50;99.90;;;;;;4935080;29;20497;-78
2022/09/15 06:03:50;;;;;;;5.03;3.10;;;14.50;99.90;;;;;;4935069;29;20451;-78
2022/09/15 06:06:20;;;;;;;6.70;3.03;;;14.50;99.90;;;;;;4938663;29;20475;-78
2022/09/15 06:08:53;;;;;;;6.27;3.23;;;14.50;99.90;;;;;;4940286;28;20939;-78
2022/09/15 06:11:27;;;;;;;8.93;4.20;;;14.50;99.90;;;;;;4940039;29;20469;-78
2022/09/15 06:13:58;;;;;;;4.53;2.80;;;14.60;99.90;;;;;;4938577;29;20462;-78
2022/09/15 06:16:26;;;;;;;6.77;2.83;;;14.60;99.90;;;;;;4938582;29;20422;-78
2022/09/15 06:18:54;;;;;;;5.33;2.90;;;14.60;99.90;;;;;;4939931;28;20447;-78
2022/09/15 06:21:24;;;;;;;6.13;3.30;;;14.70;99.90;;;;;;4938709;29;20471;-78
2022/09/15 06:23:55;;;;;;;6.10;2.93;;;14.70;99.90;;;;;;4938695;29;20454;-78
2022/09/15 06:26:24;;;;;;;7.27;3.43;;;14.70;99.90;;;;;;4941427;29;20406;-79
2022/09/15 06:28:53;;;;;;;5.03;2.27;;;14.80;99.90;;;;;;4939377;29;20466;-78
2022/09/15 06:31:22;;;;;;;5.57;2.47;;;14.80;99.90;;;;;;4939192;29;20982;-78
2022/09/15 06:33:52;;;;;;;6.63;2.50;;;14.80;99.90;;;;;;4939375;29;20939;-79
2022/09/15 06:36:23;;;;;;;5.53;2.33;;;14.90;99.90;;;;;;4939167;29;20970;-79
2022/09/15 06:38:52;;;;;;;6.03;2.63;;;14.90;99.90;;;;;;4940530;29;20503;-78
2022/09/15 06:41:22;;;;;;;4.40;2.20;;;14.90;99.90;;;;;;4940096;29;20472;-78
2022/09/15 06:43:50;;;;;;;7.60;2.27;;;14.90;99.90;;;;;;4940392;29;20443;-78
2022/09/15 06:46:21;;;;;;;5.33;2.47;;;14.90;99.90;;;;;;4941075;29;20494;-78
2022/09/15 06:48:50;;;;;;;5.57;2.80;;;15.00;99.90;;;;;;4939316;29;20890;-78
2022/09/15 06:51:20;;;;;;;5.23;2.30;;;15.00;99.90;;;;;;4940478;29;20523;-78
2022/09/15 06:53:48;;;;;;;5.63;2.30;;;15.00;99.90;;;;;;4940338;29;20444;-78
2022/09/15 06:56:19;;;;;;;5.37;2.73;;;15.00;99.90;;;;;;4938654;28;20467;-78
2022/09/15 06:58:49;;;;;;;6.43;2.50;;;15.10;99.90;;;;;;4938987;28;20448;-78
2022/09/15 07:01:22;;;;;;;5.80;1.90;;;15.10;99.90;;;;;;4938332;29;20478;-78
2022/09/15 07:03:50;;;;;;;11.07;2.80;;;15.10;99.90;;;;;;4938569;29;20493;-79
2022/09/15 07:06:19;;;;;;;7.30;1.80;;;15.10;99.90;;;;;;4939597;29;20442;-78
2022/09/15 07:08:47;;;;;;;9.03;2.10;;;15.20;99.90;;;;;;4938818;29;20458;-78
2022/09/15 07:11:17;;;;;;;4.00;2.57;;;15.20;99.90;;;;;;4938176;29;20482;-78
2022/09/15 07:13:45;;;;;;;8.27;2.30;;;15.20;99.90;;;;;;4938207;29;20471;-78
2022/09/15 07:16:15;;;;;;;6.97;2.30;;;15.30;99.90;;;;;;4937700;29;20455;-78
2022/09/15 07:18:43;;;;;;;5.50;2.10;;;15.30;99.90;;;;;;4939260;29;20394;-78
2022/09/15 07:21:13;;;;;;;5.77;1.73;;;15.40;99.90;;;;;;4937721;29;20847;-78
2022/09/15 07:23:42;;;;;;;6.07;2.10;;;15.40;99.90;;;;;;4938042;28;20843;-78
2022/09/15 07:26:12;;;;;;;6.77;2.00;;;15.40;99.90;;;;;;4937839;29;20494;-78
2022/09/15 07:28:42;;;;;;;6.47;1.87;;;15.50;99.90;;;;;;4939949;29;20534;-79
2022/09/15 07:31:13;;;;;;;5.17;1.97;;;15.50;99.90;;;;;;4939380;29;20972;-78
2022/09/15 07:33:42;;;;;;;6.77;1.83;;;15.50;99.90;;;;;;4939178;28;20446;-78
2022/09/15 07:36:11;;;;;;;4.07;2.00;;;15.60;99.90;;;;;;4938812;29;20426;-78
2022/09/15 07:38:41;;;;;;;4.37;1.53;;;15.60;99.90;;;;;;4937767;29;20787;-78
2022/09/15 07:41:11;;;;;;;3.07;1.17;;;15.70;99.90;;;;;;4937257;29;20453;-78
2022/09/15 07:43:39;;;;;;;7.37;2.30;;;15.70;99.90;;;;;;4937921;29;20455;-80
2022/09/15 07:46:07;;;;;;;3.60;1.57;;;15.80;99.90;;;;;;4938997;29;20795;-78
2022/09/15 07:48:36;;;;;;;7.40;1.47;;;15.90;99.90;;;;;;4938957;29;20447;-78
2022/09/15 07:51:05;;;;;;;7.63;1.87;;;16.00;99.90;;;;;;4937245;29;20892;-78
2022/09/15 07:53:34;;;;;;;4.03;1.43;;;16.10;99.90;;;;;;4939255;29;20491;-78
2022/09/15 07:56:02;;;;;;;6.10;1.60;;;16.30;99.90;;;;;;4937877;29;20444;-78
2022/09/15 07:58:32;;;;;;;4.90;1.37;;;16.50;99.90;;;;;;4938285;29;20436;-78
2022/09/15 08:01:04;;;;;;;5.13;1.53;;;16.60;99.90;;;;;;4937725;29;20805;-78
2022/09/15 08:03:33;;;;;;;5.17;1.33;;;16.70;99.90;;;;;;4937362;29;20457;-79
2022/09/15 08:06:03;;;;;;;3.20;1.03;;;16.80;99.90;;;;;;4938271;29;20994;-79
2022/09/15 08:08:32;;;;;;;3.03;1.20;;;16.90;99.90;;;;;;4938910;28;20450;-78
2022/09/15 08:11:06;;;;;;;5.80;1.70;;;17.00;99.90;;;;;;4938382;29;20446;-78
2022/09/15 08:13:34;;;;;;;5.50;1.40;;;17.10;99.90;;;;;;4936835;29;20493;-78
2022/09/15 08:16:07;;;;;;;4.87;1.07;;;17.20;99.90;;;;;;4938144;29;20474;-78
2022/09/15 08:18:35;;;;;;;2.63;1.13;;;17.30;99.90;;;;;;4937818;29;20917;-78
2022/09/15 08:21:06;;;;;;;2.73;1.17;;;17.40;99.90;;;;;;4937821;29;20968;-79
2022/09/15 08:23:36;;;;;;;2.27;1.03;;;17.40;99.90;;;;;;4937605;29;20487;-78
2022/09/15 08:26:06;;;;;;;3.67;1.10;;;17.40;99.90;;;;;;4938511;29;20982;-78
2022/09/15 08:28:40;;;;;;;5.50;1.33;;;17.50;99.90;;;;;;4936860;29;20442;-78
2022/09/15 08:31:10;;;;;;;3.90;0.97;;;17.40;99.90;;;;;;4936263;29;20531;-78
2022/09/15 08:33:39;;;;;;;1.93;0.93;;;17.50;99.90;;;;;;4937732;29;20890;-78
2022/09/15 08:36:13;;;;;;;5.10;1.17;;;17.50;99.90;;;;;;4936378;29;20821;-78
2022/09/15 08:38:44;;;;;;;5.17;1.63;;;17.50;99.90;;;;;;4936842;29;20423;-79
2022/09/15 08:41:15;;;;;;;4.90;1.10;;;17.50;99.90;;;;;;4936399;29;20461;-78
2022/09/15 08:43:47;;;;;;;3.00;1.20;;;17.60;99.90;;;;;;4938454;29;20435;-78
2022/09/15 08:46:20;;;;;;;4.80;1.50;;;17.80;99.90;;;;;;4938048;29;20442;-78
2022/09/15 08:48:56;;;;;;;4.27;1.40;;;17.90;99.90;;;;;;4936723;29;21009;-79
2022/09/15 08:51:36;;;;;;;3.10;1.17;;;18.00;99.90;;;;;;4936513;29;20479;-78
2022/09/15 08:54:13;;;;;;;4.37;2.13;;;18.10;99.90;;;;;;4938281;29;20410;-79
2022/09/15 08:56:43;;;;;;;3.60;1.60;;;18.20;99.90;;;;;;4937238;29;20443;-78
2022/09/15 08:59:14;;;;;;;4.10;1.10;;;18.20;99.90;;;;;;4936157;29;20470;-78
2022/09/15 09:02:04;;;;;;;4.97;1.40;;;18.20;99.90;;;;;;4938386;29;20568;-78
2022/09/15 09:05:04;;;;;;;4.70;1.10;;;18.20;99.90;;;;;;4936699;29;20464;-78
2022/09/15 09:07:58;;;;;;;5.67;2.07;;;18.10;99.90;;;;;;4937106;29;20991;-79
2022/09/15 09:10:36;;;;;;;3.17;1.10;;;18.00;99.90;;;;;;4936207;29;20439;-78
2022/09/15 09:13:18;;;;;;;3.80;1.07;;;17.90;99.90;;;;;;4937953;29;20428;-78
2022/09/15 09:15:57;;;;;;;8.20;2.03;;;17.80;99.90;;;;;;4937682;29;20926;-78
2022/09/15 09:18:59;;;;;;;6.13;1.30;;;17.60;99.90;;;;;;4937372;29;20437;-79
2022/09/15 09:21:31;;;;;;;4.53;1.43;;;17.50;99.90;;;;;;4936521;29;20483;-79
2022/09/15 09:24:05;;;;;;;5.27;1.10;;;17.40;99.90;;;;;;4936491;29;20441;-78
2022/09/15 09:26:37;;;;;;;3.80;1.00;;;17.30;99.90;;;;;;4937779;29;20486;-78
2022/09/15 09:29:11;;;;;;;3.83;1.10;;;17.30;99.90;;;;;;4937713;29;20489;-78
2022/09/15 09:31:40;;;;;;;3.90;1.23;;;17.20;99.90;;;;;;4936230;29;20479;-78
2022/09/15 09:34:20;;;;;;;3.23;1.10;;;17.20;99.90;;;;;;4935885;29;20918;-78
2022/09/15 09:36:54;;;;;;;5.43;1.50;;;17.10;99.90;;;;;;4936158;28;20531;-78
2022/09/15 09:39:23;;;;;;;2.93;1.10;;;17.20;99.90;;;;;;4936122;28;20490;-78
2022/09/15 09:41:53;;;;;;;3.07;1.07;;;17.20;99.90;;;;;;4938884;29;20468;-78
2022/09/15 09:44:30;;;;;;;6.33;1.30;;;17.20;99.90;;;;;;4939988;29;20478;-78
2022/09/15 09:46:58;;;;;;;4.17;1.30;;;17.20;99.90;;;;;;4939597;29;20476;-78
2022/09/15 09:49:29;;;;;;;4.00;1.37;;;17.30;99.90;;;;;;4940571;29;20421;-78
2022/09/15 09:51:58;;;;;;;4.50;1.20;;;17.30;99.90;;;;;;4939458;29;20475;-78
2022/09/15 09:54:30;;;;;;;4.10;1.50;;;17.40;99.90;;;;;;4938940;29;20451;-78
2022/09/15 09:57:21;;;;;;;4.90;1.40;;;17.60;99.90;;;;;;4939981;29;20914;-78
2022/09/15 09:59:50;;;;;;;4.47;1.50;;;17.60;99.90;;;;;;4940575;29;20432;-78
2022/09/15 10:02:21;;;;;;;5.07;1.60;;;17.60;99.90;;;;;;4938773;29;20498;-78
2022/09/15 10:04:52;;;;;;;4.90;1.30;;;17.60;99.90;;;;;;4938622;29;20448;-78
2022/09/15 10:07:23;;;;;;;3.70;1.60;;;17.60;99.90;;;;;;4938605;29;20463;-78
2022/09/15 10:09:57;;;;;;;3.43;1.40;;;17.70;99.90;;;;;;4938475;29;20973;-78
2022/09/15 10:12:33;;;;;;;5.20;1.10;;;17.70;99.90;;;;;;4939418;29;20479;-78
2022/09/15 10:15:04;;;;;;;4.87;1.67;;;17.80;99.90;;;;;;4939149;29;20458;-78
2022/09/15 10:17:42;;;;;;;7.50;1.90;;;17.80;99.90;;;;;;4939237;28;20458;-79
2022/09/15 10:20:31;;;;;;;2.53;1.10;;;17.80;99.90;;;;;;4938953;29;20439;-78
2022/09/15 10:23:06;;;;;;;6.13;1.20;;;17.90;99.90;;;;;;4939028;29;20461;-78
2022/09/15 10:25:37;;;;;;;5.00;1.40;;;17.90;99.90;;;;;;4938861;28;20447;-78
2022/09/15 10:28:28;;;;;;;4.20;1.33;;;18.00;99.90;;;;;;4938615;29;20954;-78
2022/09/15 10:31:03;;;;;;;3.60;1.03;;;18.00;99.90;;;;;;4939279;29;20479;-78
2022/09/15 10:33:34;;;;;;;4.23;0.90;;;18.10;99.90;;;;;;4938509;29;20931;-78
2022/09/15 10:36:05;;;;;;;5.73;1.20;;;18.10;99.90;;;;;;4940398;28;20490;-79
2022/09/15 10:38:41;;;;;;;3.77;1.00;;;18.10;99.90;;;;;;4939503;29;20428;-78
2022/09/15 10:41:23;;;;;;;4.43;1.20;;;18.20;99.90;;;;;;4939806;29;20466;-79
2022/09/15 10:44:15;;;;;;;4.97;1.30;;;18.20;99.90;;;;;;4938011;29;20943;-78
2022/09/15 10:46:54;;;;;;;6.30;1.73;;;18.20;99.90;;;;;;4938272;29;20475;-79
2022/09/15 10:49:36;;;;;;;2.20;0.90;;;18.20;99.90;;;;;;4938206;29;20481;-78
2022/09/15 10:52:17;;;;;;;2.70;1.00;;;18.20;99.90;;;;;;4937810;29;20572;-78
2022/09/15 10:55:02;;;;;;;2.20;0.80;;;18.20;99.90;;;;;;4937751;29;20964;-78
2022/09/15 10:57:50;;;;;;;3.40;0.90;;;18.20;99.90;;;;;;4937809;29;20448;-78
2022/09/15 11:00:22;;;;;;;4.60;2.00;;;18.30;99.90;;;;;;4937432;28;20458;-77
2022/09/15 11:03:19;;;;;;;3.10;1.17;;;18.30;99.90;;;;;;4938467;29;20495;-78
2022/09/15 11:05:59;;;;;;;3.83;1.07;;;18.40;99.90;;;;;;4937759;29;20435;-77
2022/09/15 11:08:45;;;;;;;3.30;1.03;;;18.50;99.90;;;;;;4941025;29;20859;-78
2022/09/15 11:11:22;;;;;;;4.87;1.30;;;18.60;99.90;;;;;;4938756;29;20467;-79
2022/09/15 11:14:03;;;;;;;2.80;1.20;;;18.80;99.90;;;;;;4940201;29;20431;-78
2022/09/15 11:16:47;;;;;;;3.50;1.13;;;18.90;99.90;;;;;;4940101;29;20420;-78
2022/09/15 11:19:30;;;;;;;3.23;0.90;;;19.00;99.90;;;;;;4939467;29;20423;-78
2022/09/15 11:22:02;;;;;;;3.50;1.10;;;19.00;99.90;;;;;;4937878;29;21073;-79
2022/09/15 11:24:39;;;;;;;4.20;1.50;;;19.00;99.90;;;;;;4938394;29;20451;-78
2022/09/15 11:27:14;;;;;;;5.63;1.50;;;18.80;99.90;;;;;;4938834;29;20470;-78
2022/09/15 11:30:00;;;;;;;4.00;1.30;;;18.60;99.90;;;;;;4938624;28;20442;-79
2022/09/15 11:32:34;;;;;;;4.10;1.20;;;18.40;99.90;;;;;;4938312;29;20479;-79
2022/09/15 11:35:18;;;;;;;4.37;1.30;;;18.20;99.90;;;;;;4938444;29;20442;-79
2022/09/15 11:37:49;;;;;;;2.10;1.00;;;18.10;99.90;;;;;;4940022;29;20545;-79
2022/09/15 11:40:23;;;;;;;4.27;1.37;;;18.00;99.90;;;;;;4940170;29;20430;-78
2022/09/15 11:42:57;;;;;;;12.53;2.47;;;17.90;99.90;;;;;;4940685;28;20434;-79
2022/09/15 11:45:29;;;;;;;8.13;1.60;;;17.90;99.90;;;;;;4938722;28;20444;-79
2022/09/15 11:48:04;;;;;;;3.33;1.43;;;17.80;99.90;;;;;;4938264;29;20491;-79
2022/09/15 11:50:37;;;;;;;6.17;1.30;;;17.80;99.90;;;;;;4938895;29;20420;-79
2022/09/15 11:53:12;;;;;;;3.90;1.27;;;17.80;99.90;;;;;;4939463;29;20445;-78
2022/09/15 11:55:45;;;;;;;9.60;1.50;;;17.80;99.90;;;;;;4939450;29;20424;-79
2022/09/15 11:58:19;;;;;;;3.03;1.10;;;17.70;99.90;;;;;;4938705;29;20420;-79
2022/09/15 12:00:55;;;;;;;5.20;1.20;;;17.70;99.90;;;;;;4937080;29;20821;-78
2022/09/15 12:03:31;;;;;;;4.53;1.30;;;17.70;99.90;;;;;;4937903;29;20445;-78
2022/09/15 12:06:04;;;;;;;3.70;1.13;;;17.70;99.90;;;;;;4936887;29;20471;-78
2022/09/15 12:08:36;;;;;;;4.70;1.40;;;17.80;99.90;;;;;;4937956;29;20966;-78
2022/09/15 12:11:10;;;;;;;2.70;1.23;;;17.80;99.90;;;;;;4938346;28;20460;-78
2022/09/15 12:13:41;;;;;;;4.10;1.40;;;17.80;99.90;;;;;;4937887;29;20784;-78
2022/09/15 12:16:10;;;;;;;3.07;1.20;;;17.80;99.90;;;;;;4936712;28;20443;-78
2022/09/15 12:18:47;;;;;;;5.00;1.20;;;17.80;99.90;;;;;;4937064;29;20448;-78
2022/09/15 12:21:19;;;;;;;3.00;0.90;;;17.90;99.90;;;;;;4938424;29;20518;-78
2022/09/15 12:23:54;;;;;;;5.00;1.27;;;18.10;99.90;;;;;;4937720;29;20415;-78
2022/09/15 12:26:24;;;;;;;3.80;1.10;;;18.10;99.90;;;;;;4937604;29;20974;-78
2022/09/15 12:28:56;;;;;;;2.70;1.00;;;18.10;99.90;;;;;;4936121;29;20549;-78
2022/09/15 12:31:36;;;;;;;2.73;1.33;;;18.20;99.90;;;;;;4938004;29;20971;-78
2022/09/15 12:34:21;;;;;;;2.33;0.80;;;18.20;99.90;;;;;;4936528;29;20448;-78
2022/09/15 12:36:52;;;;;;;2.53;1.57;;;18.10;99.90;;;;;;4937160;29;21001;-78
2022/09/15 12:39:36;;;;;;;2.40;0.90;;;18.10;99.90;;;;;;4936362;29;20447;-78
2022/09/15 12:42:10;;;;;;;3.40;1.20;;;18.10;99.90;;;;;;4936298;29;20475;-79
2022/09/15 12:44:43;;;;;;;3.60;1.27;;;18.00;99.90;;;;;;4936834;29;20461;-79
2022/09/15 12:47:33;;;;;;;2.40;0.80;;;17.90;99.90;;;;;;4937717;28;20495;-78
2022/09/15 12:50:08;;;;;;;5.70;1.00;;;17.90;99.90;;;;;;4936553;29;20965;-78
2022/09/15 12:52:45;;;;;;;1.97;0.87;;;17.80;99.90;;;;;;4937646;28;20463;-78
2022/09/15 12:55:19;;;;;;;2.90;1.40;;;17.80;99.90;;;;;;4936635;29;20816;-79
2022/09/15 12:57:57;;;;;;;3.10;1.20;;;17.70;99.90;;;;;;4936174;29;20450;-78
2022/09/15 13:00:32;;;;;;;3.10;0.90;;;17.60;99.90;;;;;;4936366;29;20418;-78
2022/09/15 13:03:01;;;;;;;2.43;0.90;;;17.50;99.90;;;;;;4935787;28;20881;-78
2022/09/15 13:05:54;;;;;;;2.70;1.00;;;17.40;99.90;;;;;;4935927;28;20458;-78
2022/09/15 13:08:45;;;;;;;4.17;1.50;;;17.30;99.90;;;;;;4936055;28;20501;-78
2022/09/15 13:11:19;;;;;;;2.70;1.00;;;17.20;99.90;;;;;;4937490;28;20475;-78
2022/09/15 13:13:51;;;;;;;2.37;0.90;;;17.10;99.90;;;;;;4936400;28;21003;-78